Forside
METAR-TAF:

METAR-TAF

Lufthavne :

Fort-de-France, Martinique

Breddekreds: 14-36N, længdekreds: 061-00W, højde: 5 m

Aktuelle vejr

Denne rapport blev lavet for 43 minutter siden, kl. 06:00 UTC
Vind 7 kt fra øst
Temperatur 26°C
Fugtighed 84%
Tryk 1013 hPa
Sigt 10 km eller mere
Nogle få skyer i en højde af 2200 ft

METAR: TFFF 210600Z AUTO 09007KT 9999 FEW022 26/23 Q1013 TEMPO 4000 SHRA SCT020TCU

Tid: 02:43 (06:43 UTC)

Vejrudsigter

Denne rapport blev lavet for 1 time og 43 minutter siden, kl. 05:00 UTC
Foreløbig gælder fra 21 på 06 UTC til 22 på 06 UTC
Vind 5 kt fra øst
Sigt 10 km eller mere
Spredte skyer i en højde af 2500 ft
Sandsynlighed 30% :
Midlertidig
fra 21 på 06 UTC til 21 på 11 UTC
Sigt: 4000 m
Spredte skyer i en højde af 2000 ft, Optårnet Cumulus.
regnbyger

TAF: TFFF 210500Z 2106/2206 09005KT 9999 SCT025 PROB30 TEMPO 2106/2111 4000 SHRA SCT020TCU

Vejrobservationer og prognoser fra mere end 4000 lufthavne (METAR og TAF).

De gule og røde prikker repræsenterer de meteorologiske stationer.

Flyt musen over at se navnet på stationen.

Så klik over at se vejr observationer og prognoser.

At skifte det kort: Klik på de grønne knapper med et sort kors for at zoome ind; på den grønne knap med en bindestreg for at zoome ud; eller på de grønne pile for tilstødende kort.


METAR-TAF: